createdAt,value
2023-04-19T00:02:18.455Z,102941.63
2023-04-19T00:04:47.128Z,102947.66
2023-04-19T00:07:13.780Z,102940.81
2023-04-19T00:09:40.323Z,102939.16
2023-04-19T00:12:07.218Z,102939.41
2023-04-19T00:14:33.661Z,102939.69
2023-04-19T00:17:00.245Z,102938.28
2023-04-19T00:19:29.390Z,102938.81
2023-04-19T00:21:56.070Z,102937.16
2023-04-19T00:24:22.588Z,102937.41
2023-04-19T00:26:49.462Z,102940.69
2023-04-19T00:29:16.723Z,102933.00
2023-04-19T00:31:43.182Z,102942.28
2023-04-19T00:34:09.787Z,102941.16
2023-04-19T00:36:37.067Z,102935.88
2023-04-19T00:39:03.689Z,102938.28
2023-04-19T00:41:30.216Z,102931.13
2023-04-19T00:44:00.228Z,102926.44
2023-04-19T00:46:27.561Z,102932.44
2023-04-19T00:48:54.249Z,102920.63
2023-04-19T00:51:20.793Z,102923.56
2023-04-19T00:53:48.212Z,102920.25
2023-04-19T00:56:15.927Z,102921.59
2023-04-19T00:58:42.478Z,102918.28
2023-04-19T01:01:09.337Z,102916.31
2023-04-19T01:03:36.463Z,102917.91
2023-04-19T01:06:03.403Z,102905.84
2023-04-19T01:08:29.818Z,102911.06
2023-04-19T01:10:56.209Z,102912.97
2023-04-19T01:13:22.920Z,102909.16
2023-04-19T01:15:49.526Z,102906.16
2023-04-19T01:18:15.947Z,102907.81
2023-04-19T01:20:42.715Z,102912.44
2023-04-19T01:23:11.680Z,102916.00
2023-04-19T01:25:38.855Z,102910.53
2023-04-19T01:28:05.956Z,102906.72
2023-04-19T01:30:32.729Z,102908.13
2023-04-19T01:33:00.424Z,102903.50
2023-04-19T01:35:30.712Z,102903.75
2023-04-19T01:37:57.316Z,102905.97
2023-04-19T01:40:25.649Z,102905.97
2023-04-19T01:42:53.049Z,102910.91
2023-04-19T01:45:20.236Z,102904.94
2023-04-19T01:47:50.490Z,102903.59
2023-04-19T01:50:17.086Z,102898.47
2023-04-19T01:52:43.493Z,102903.91
2023-04-19T01:55:10.229Z,102903.91
2023-04-19T01:57:36.768Z,102905.56
2023-04-19T02:00:04.099Z,102902.31
2023-04-19T02:02:41.534Z,102907.53
2023-04-19T02:05:08.649Z,102905.63
2023-04-19T02:07:35.369Z,102910.00
2023-04-19T02:10:02.120Z,102911.66
2023-04-19T02:12:30.902Z,102905.09
2023-04-19T02:14:57.922Z,102909.47
2023-04-19T02:17:32.461Z,102898.53
2023-04-19T02:20:00.344Z,102903.47
2023-04-19T02:22:27.037Z,102905.97
2023-04-19T02:24:53.955Z,102901.56
2023-04-19T02:27:26.921Z,102897.75
2023-04-19T02:29:54.332Z,102906.25
2023-04-19T02:32:21.028Z,102906.25
2023-04-19T02:34:47.888Z,102906.56
2023-04-19T02:37:14.363Z,102903.59
2023-04-19T02:39:42.546Z,102910.69
2023-04-19T02:42:09.054Z,102910.69
2023-04-19T02:44:35.564Z,102915.09
2023-04-19T02:47:02.209Z,102906.88
2023-04-19T02:49:34.621Z,102919.47
2023-04-19T02:52:01.155Z,102914.81
2023-04-19T02:54:27.798Z,102905.53
2023-04-19T02:56:54.287Z,102907.19
2023-04-19T02:59:20.789Z,102906.97
2023-04-19T03:01:47.314Z,102903.41
2023-04-19T03:04:14.107Z,102906.97
2023-04-19T03:06:42.123Z,102903.97
2023-04-19T03:09:08.672Z,102895.50
2023-04-19T03:11:37.000Z,102897.16
2023-04-19T03:14:03.613Z,102899.91
2023-04-19T03:16:30.322Z,102907.00
2023-04-19T03:18:58.249Z,102903.19
2023-04-19T03:21:29.198Z,102901.03
2023-04-19T03:23:56.128Z,102894.75
2023-04-19T03:26:24.675Z,102894.75
2023-04-19T03:28:53.468Z,102891.75
2023-04-19T03:31:33.152Z,102897.22
2023-04-19T03:33:59.825Z,102892.56
2023-04-19T03:36:34.980Z,102888.75
2023-04-19T03:39:03.553Z,102895.03
2023-04-19T03:41:30.154Z,102886.03
2023-04-19T03:44:04.431Z,102878.63
2023-04-19T03:46:31.786Z,102887.38
2023-04-19T03:48:59.588Z,102891.19
2023-04-19T03:51:27.332Z,102878.91
2023-04-19T03:53:53.770Z,102888.69
2023-04-19T03:56:20.570Z,102887.84
2023-04-19T03:58:49.463Z,102891.56
2023-04-19T04:01:20.714Z,102891.81
2023-04-19T04:03:48.253Z,102882.50
2023-04-19T04:06:15.336Z,102883.28
2023-04-19T04:08:41.949Z,102885.44
2023-04-19T04:11:08.507Z,102891.97
2023-04-19T04:13:35.141Z,102896.91
2023-04-19T04:16:07.812Z,102890.88
2023-04-19T04:18:34.965Z,102884.03
2023-04-19T04:21:04.542Z,102893.81
2023-04-19T04:23:33.853Z,102884.22
2023-04-19T04:26:01.473Z,102897.06
2023-04-19T04:28:39.747Z,102893.44
2023-04-19T04:31:06.531Z,102901.31
2023-04-19T04:33:34.676Z,102902.09
2023-04-19T04:36:01.454Z,102898.53
2023-04-19T04:38:32.160Z,102894.97
2023-04-19T04:40:59.589Z,102894.91
2023-04-19T04:43:29.930Z,102899.84
2023-04-19T04:45:58.013Z,102897.63
2023-04-19T04:48:28.942Z,102898.72
2023-04-19T04:50:57.390Z,102893.19
2023-04-19T04:53:28.332Z,102895.09
2023-04-19T04:55:55.169Z,102889.31
2023-04-19T04:58:21.706Z,102895.84
2023-04-19T05:00:58.965Z,102894.19
2023-04-19T05:03:27.345Z,102893.88
2023-04-19T05:05:57.673Z,102902.31
2023-04-19T05:08:26.737Z,102909.69
2023-04-19T05:10:57.235Z,102899.84
2023-04-19T05:13:26.895Z,102901.50
2023-04-19T05:15:54.455Z,102897.94
2023-04-19T05:18:21.276Z,102904.50
2023-04-19T05:20:48.928Z,102902.84
2023-04-19T05:23:20.388Z,102910.19
2023-04-19T05:25:48.114Z,102906.38
2023-04-19T05:28:15.022Z,102907.22
2023-04-19T05:30:53.965Z,102909.94
2023-04-19T05:33:23.134Z,102906.13
2023-04-19T05:35:51.394Z,102902.31
2023-04-19T05:38:18.833Z,102906.44
2023-04-19T05:40:45.785Z,102901.06
2023-04-19T05:43:19.261Z,102907.97
2023-04-19T05:45:45.872Z,102913.59
2023-04-19T05:48:13.569Z,102915.94
2023-04-19T05:50:57.963Z,102906.97
2023-04-19T05:53:56.675Z,102911.09
2023-04-19T05:56:24.951Z,102913.94
2023-04-19T05:58:52.979Z,102913.47
2023-04-19T06:01:19.675Z,102904.72
2023-04-19T06:03:46.898Z,102909.19
2023-04-19T06:06:13.702Z,102913.06
2023-04-19T06:08:40.414Z,102909.78
2023-04-19T06:11:15.913Z,102902.75
2023-04-19T06:13:51.105Z,102905.59
2023-04-19T06:16:17.757Z,102914.16
2023-04-19T06:18:44.364Z,102911.22
2023-04-19T06:21:10.856Z,102913.19
2023-04-19T06:23:37.282Z,102906.47
2023-04-19T06:26:03.786Z,102913.16
2023-04-19T06:28:30.313Z,102913.25
2023-04-19T06:30:56.848Z,102912.25
2023-04-19T06:33:23.360Z,102918.31
2023-04-19T06:35:51.123Z,102913.97
2023-04-19T06:38:18.986Z,102909.00
2023-04-19T06:40:45.490Z,102904.59
2023-04-19T06:43:15.642Z,102913.50
2023-04-19T06:45:42.191Z,102904.28
2023-04-19T06:48:08.715Z,102913.06
2023-04-19T06:50:35.339Z,102908.84
2023-04-19T06:53:04.024Z,102911.69
2023-04-19T06:55:31.222Z,102918.81
2023-04-19T06:57:57.716Z,102919.94
2023-04-19T07:00:24.259Z,102912.84
2023-04-19T07:02:51.054Z,102924.03
2023-04-19T07:05:18.359Z,102924.53
2023-04-19T07:07:46.250Z,102909.88
2023-04-19T07:10:12.974Z,102919.63
2023-04-19T07:12:39.926Z,102920.50
2023-04-19T07:15:06.985Z,102918.84
2023-04-19T07:17:35.400Z,102911.88
2023-04-19T07:20:03.716Z,102910.66
2023-04-19T07:22:30.238Z,102906.16
2023-04-19T07:24:56.681Z,102907.78
2023-04-19T07:27:23.171Z,102907.78
2023-04-19T07:29:49.664Z,102907.22
2023-04-19T07:32:16.157Z,102909.28
2023-04-19T07:34:43.584Z,102911.00
2023-04-19T07:37:10.454Z,102916.88
2023-04-19T07:39:36.919Z,102912.00
2023-04-19T07:42:03.560Z,102901.06
2023-04-19T07:44:30.279Z,102906.78
2023-04-19T07:46:56.853Z,102908.34
2023-04-19T07:49:23.397Z,102909.28
2023-04-19T07:51:51.083Z,102908.78
2023-04-19T07:54:20.038Z,102911.38
2023-04-19T07:56:46.565Z,102914.19
2023-04-19T07:59:12.974Z,102909.66
2023-04-19T08:01:39.547Z,102914.97
2023-04-19T08:04:06.643Z,102910.56
2023-04-19T08:06:33.602Z,102918.78
2023-04-19T08:09:00.279Z,102919.44
2023-04-19T08:11:27.194Z,102918.81
2023-04-19T08:14:04.538Z,102913.53
2023-04-19T08:17:14.235Z,102922.03
2023-04-19T08:19:19.733Z,102909.28
2023-04-19T08:21:46.243Z,102907.22
2023-04-19T08:24:12.715Z,102917.06
2023-04-19T08:26:39.194Z,102911.34
2023-04-19T08:29:05.584Z,102903.03
2023-04-19T08:31:32.452Z,102905.66
2023-04-19T08:34:00.322Z,102913.88
2023-04-19T08:36:36.965Z,102910.97
2023-04-19T08:39:12.316Z,102906.78
2023-04-19T08:41:48.118Z,102891.13
2023-04-19T08:44:32.566Z,102893.25
2023-04-19T08:47:02.491Z,102893.75
2023-04-19T08:49:29.173Z,102891.78
2023-04-19T08:51:58.079Z,102889.34
2023-04-19T08:54:26.007Z,102891.31
2023-04-19T08:56:54.411Z,102908.91
2023-04-19T08:59:21.239Z,102891.78
2023-04-19T09:01:47.990Z,102890.22
2023-04-19T09:04:35.586Z,102894.69
2023-04-19T09:07:03.512Z,102890.59
2023-04-19T09:12:00.246Z,102891.22
2023-04-19T09:14:28.450Z,102892.81
2023-04-19T09:17:12.478Z,102896.19
2023-04-19T09:19:50.152Z,102889.81
2023-04-19T09:22:17.081Z,102893.56
2023-04-19T09:27:24.966Z,102886.72
2023-04-19T09:30:01.874Z,102888.19
2023-04-19T09:32:47.928Z,102883.06
2023-04-19T09:35:14.728Z,102875.47
2023-04-19T09:38:02.120Z,102881.75
2023-04-19T09:40:28.447Z,102881.34
2023-04-19T09:43:08.835Z,102874.63
2023-04-19T09:45:44.021Z,102869.81
2023-04-19T09:48:11.898Z,102867.56
2023-04-19T09:50:59.821Z,102872.53
2023-04-19T09:53:32.003Z,102875.91
2023-04-19T09:56:02.368Z,102872.69
2023-04-19T10:01:13.303Z,102874.13
2023-04-19T10:03:43.263Z,102862.69
2023-04-19T10:06:14.614Z,102891.88
2023-04-19T10:08:57.380Z,102860.75
2023-04-19T10:11:29.241Z,102860.94
2023-04-19T10:13:58.973Z,102858.09
2023-04-19T10:16:26.387Z,102849.97
2023-04-19T10:18:53.822Z,102851.75
2023-04-19T10:21:20.942Z,102857.09
2023-04-19T10:23:48.044Z,102853.31
2023-04-19T10:26:14.522Z,102849.97
2023-04-19T10:28:42.348Z,102846.94
2023-04-19T10:31:15.273Z,102848.69
2023-04-19T10:33:42.203Z,102847.88
2023-04-19T10:36:11.788Z,102841.97
2023-04-19T10:38:48.592Z,102833.19
2023-04-19T10:41:17.593Z,102839.66
2023-04-19T10:44:11.826Z,102839.56
2023-04-19T10:46:42.674Z,102840.81
2023-04-19T10:49:10.179Z,102833.81
2023-04-19T10:51:39.461Z,102843.38
2023-04-19T10:54:07.378Z,102835.72
2023-04-19T10:56:33.923Z,102826.44
2023-04-19T10:59:00.516Z,102832.19
2023-04-19T11:01:44.433Z,102831.31
2023-04-19T11:04:30.582Z,102824.09
2023-04-19T11:07:03.492Z,102824.91
2023-04-19T11:09:41.977Z,102817.03
2023-04-19T11:12:12.256Z,102822.16
2023-04-19T11:14:53.318Z,102808.53
2023-04-19T11:17:32.947Z,102787.03
2023-04-19T11:20:11.163Z,102793.13
2023-04-19T11:23:00.781Z,102798.31
2023-04-19T11:25:27.995Z,102785.53
2023-04-19T11:27:55.676Z,102785.06
2023-04-19T11:30:28.998Z,102802.13
2023-04-19T11:32:57.234Z,102787.25
2023-04-19T11:35:28.578Z,102778.44
2023-04-19T11:37:56.607Z,102772.06
2023-04-19T11:40:26.157Z,102756.03
2023-04-19T11:42:54.300Z,102760.53
2023-04-19T11:45:30.144Z,102768.84
2023-04-19T11:47:59.844Z,102758.84
2023-04-19T11:50:33.638Z,102754.78
2023-04-19T11:53:09.305Z,102760.81
2023-04-19T11:55:35.900Z,102755.53
2023-04-19T11:58:02.492Z,102745.91
2023-04-19T12:00:30.564Z,102742.31
2023-04-19T12:02:57.793Z,102749.13
2023-04-19T12:05:25.884Z,102756.53
2023-04-19T12:08:08.465Z,102753.41
2023-04-19T12:10:36.173Z,102748.25
2023-04-19T12:13:17.265Z,102745.69
2023-04-19T12:15:45.311Z,102740.75
2023-04-19T12:18:12.608Z,102746.34
2023-04-19T12:20:45.637Z,102742.66
2023-04-19T12:23:16.020Z,102737.56
2023-04-19T12:25:44.631Z,102741.38
2023-04-19T12:28:14.647Z,102743.47
2023-04-19T12:30:41.732Z,102725.47
2023-04-19T12:33:09.133Z,102723.00
2023-04-19T12:35:36.140Z,102719.28
2023-04-19T12:38:03.492Z,102723.69
2023-04-19T12:40:30.699Z,102717.84
2023-04-19T12:42:57.352Z,102717.56
2023-04-19T12:45:24.070Z,102726.84
2023-04-19T12:47:51.097Z,102717.19
2023-04-19T12:50:17.692Z,102708.56
2023-04-19T12:52:45.470Z,102701.41
2023-04-19T12:55:14.760Z,102703.31
2023-04-19T12:57:41.661Z,102702.28
2023-04-19T13:00:10.412Z,102702.16
2023-04-19T13:02:37.055Z,102704.72
2023-04-19T13:05:05.346Z,102695.56
2023-04-19T13:07:31.973Z,102699.09
2023-04-19T13:10:00.688Z,102687.94
2023-04-19T13:12:28.291Z,102688.75
2023-04-19T13:14:54.791Z,102671.81
2023-04-19T13:17:21.420Z,102673.56
2023-04-19T13:19:47.967Z,102672.63
2023-04-19T13:22:15.596Z,102654.28
2023-04-19T13:24:42.078Z,102653.25
2023-04-19T13:27:09.235Z,102657.38
2023-04-19T13:29:36.391Z,102653.66
2023-04-19T13:32:03.343Z,102649.09
2023-04-19T13:34:29.770Z,102648.81
2023-04-19T13:36:57.549Z,102640.69
2023-04-19T13:39:24.178Z,102639.19
2023-04-19T13:41:50.853Z,102629.69
2023-04-19T13:44:17.593Z,102627.16
2023-04-19T13:46:44.345Z,102621.78
2023-04-19T13:49:10.774Z,102625.69
2023-04-19T13:51:48.798Z,102616.88
2023-04-19T13:54:17.865Z,102611.38
2023-04-19T13:56:45.732Z,102613.81
2023-04-19T13:59:13.710Z,102614.75
2023-04-19T14:01:41.008Z,102613.28
2023-04-19T14:04:07.593Z,102606.75
2023-04-19T14:06:34.438Z,102596.00
2023-04-19T14:09:00.949Z,102589.94
2023-04-19T14:11:27.369Z,102589.13
2023-04-19T14:13:54.260Z,102589.78
2023-04-19T14:16:21.118Z,102580.00
2023-04-19T14:18:47.897Z,102572.69
2023-04-19T14:21:14.454Z,102577.28
2023-04-19T14:23:40.984Z,102573.03
2023-04-19T14:26:07.843Z,102562.53
2023-04-19T14:28:34.376Z,102563.16
2023-04-19T14:31:00.906Z,102559.31
2023-04-19T14:33:27.497Z,102559.81
2023-04-19T14:35:54.073Z,102561.31
2023-04-19T14:38:20.612Z,102549.13
2023-04-19T14:40:47.078Z,102548.16
2023-04-19T14:43:16.165Z,102559.53
2023-04-19T14:45:42.629Z,102549.13
2023-04-19T14:48:09.275Z,102554.50
2023-04-19T14:50:35.867Z,102537.06
2023-04-19T14:53:02.324Z,102554.03
2023-04-19T14:55:28.974Z,102536.09
2023-04-19T14:57:55.601Z,102533.84
2023-04-19T15:00:22.235Z,102531.03
2023-04-19T15:02:48.805Z,102538.03
2023-04-19T15:05:16.009Z,102530.53
2023-04-19T15:07:42.781Z,102520.75
2023-04-19T15:10:09.706Z,102516.19
2023-04-19T15:12:36.210Z,102517.53
2023-04-19T15:15:03.345Z,102520.47
2023-04-19T15:17:29.886Z,102512.97
2023-04-19T15:20:00.855Z,102517.19
2023-04-19T15:22:27.380Z,102519.44
2023-04-19T15:24:56.202Z,102519.16
2023-04-19T15:27:22.628Z,102518.13
2023-04-19T15:29:49.638Z,102509.03
2023-04-19T15:32:16.170Z,102513.09
2023-04-19T15:34:42.688Z,102510.97
2023-04-19T15:37:09.478Z,102508.97
2023-04-19T15:39:36.023Z,102507.66
2023-04-19T15:42:03.199Z,102501.28
2023-04-19T15:44:29.960Z,102504.22
2023-04-19T15:46:56.554Z,102505.19
2023-04-19T15:49:23.150Z,102503.38
2023-04-19T15:51:49.865Z,102494.72
2023-04-19T15:54:16.402Z,102493.75
2023-04-19T15:56:45.450Z,102506.63
2023-04-19T15:59:11.971Z,102488.84
2023-04-19T16:01:39.099Z,102504.44
2023-04-19T16:04:05.894Z,102499.72
2023-04-19T16:06:32.520Z,102502.47
2023-04-19T16:08:59.354Z,102497.56
2023-04-19T16:11:25.931Z,102496.75
2023-04-19T16:13:52.484Z,102479.34
2023-04-19T16:16:19.114Z,102493.31
2023-04-19T16:18:46.889Z,102485.97
2023-04-19T16:21:13.990Z,102486.03
2023-04-19T16:23:40.909Z,102478.41
2023-04-19T16:26:21.591Z,102491.09
2023-04-19T16:28:51.560Z,102479.66
2023-04-19T16:31:18.178Z,102484.09
2023-04-19T16:33:44.860Z,102483.59
2023-04-19T16:36:11.609Z,102488.81
2023-04-19T16:38:38.097Z,102495.16
2023-04-19T16:41:05.823Z,102481.16
2023-04-19T16:43:32.620Z,102481.28
2023-04-19T16:45:59.248Z,102477.88
2023-04-19T16:48:26.998Z,102480.03
2023-04-19T16:50:53.546Z,102480.03
2023-04-19T16:53:20.189Z,102488.22
2023-04-19T16:55:46.678Z,102479.28
2023-04-19T16:58:21.023Z,102475.19
2023-04-19T17:05:22.924Z,102473.56
2023-04-19T17:09:05.993Z,102475.25
2023-04-19T17:11:39.182Z,102476.44
2023-04-19T17:14:26.959Z,102462.75
2023-04-19T17:17:35.556Z,102470.56
2023-04-19T17:26:23.858Z,102474.97
2023-04-19T17:29:40.690Z,102458.53
2023-04-19T17:32:14.826Z,102459.78
2023-04-19T17:35:00.198Z,102459.56
2023-04-19T17:37:26.876Z,102462.56
2023-04-19T17:39:53.524Z,102466.56
2023-04-19T17:42:19.984Z,102473.59
2023-04-19T17:44:47.220Z,102469.00
2023-04-19T17:47:16.972Z,102464.09
2023-04-19T17:49:45.108Z,102460.47
2023-04-19T17:52:12.549Z,102461.69
2023-04-19T17:54:40.302Z,102472.50
2023-04-19T17:57:06.969Z,102464.63
2023-04-19T17:59:33.544Z,102461.97
2023-04-19T18:02:00.376Z,102466.97
2023-04-19T18:04:27.091Z,102465.75
2023-04-19T18:06:53.714Z,102464.50
2023-04-19T18:09:20.401Z,102463.69
2023-04-19T18:11:49.725Z,102453.34
2023-04-19T18:14:16.299Z,102461.38
2023-04-19T18:16:42.865Z,102457.69
2023-04-19T18:19:09.749Z,102462.19
2023-04-19T18:21:36.851Z,102466.66
2023-04-19T18:24:03.565Z,102476.66
2023-04-19T18:26:40.380Z,102469.28
2023-04-19T18:29:06.913Z,102475.16
2023-04-19T18:31:40.785Z,102483.81
2023-04-19T18:34:07.424Z,102489.13
2023-04-19T18:37:05.728Z,102482.06
2023-04-19T18:39:35.571Z,102479.38
2023-04-19T18:42:09.249Z,102488.53
2023-04-19T18:47:17.996Z,102490.06
2023-04-19T18:49:55.869Z,102496.78
2023-04-19T18:52:50.661Z,102505.13
2023-04-19T18:55:17.250Z,102501.63
2023-04-19T18:57:43.879Z,102505.78
2023-04-19T19:00:25.285Z,102513.56
2023-04-19T19:03:43.871Z,102506.19
2023-04-19T19:06:14.741Z,102509.91
2023-04-19T19:08:42.204Z,102515.47
2023-04-19T19:11:33.225Z,102513.38
2023-04-19T19:13:55.303Z,102523.63
2023-04-19T19:16:21.921Z,102521.78
2023-04-19T19:18:48.495Z,102527.03
2023-04-19T19:21:15.251Z,102532.06
2023-04-19T19:23:43.633Z,102534.06
2023-04-19T19:26:15.915Z,102530.84
2023-04-19T19:28:48.137Z,102540.56
2023-04-19T19:31:17.816Z,102539.78
2023-04-19T19:33:53.877Z,102541.19
2023-04-19T19:36:35.386Z,102546.72
2023-04-19T19:39:02.157Z,102544.25
2023-04-19T19:44:30.303Z,102554.84
2023-04-19T19:47:13.095Z,102556.47
2023-04-19T19:50:48.701Z,102552.94
2023-04-19T19:52:52.581Z,102555.19
2023-04-19T19:55:19.112Z,102568.69
2023-04-19T20:00:42.062Z,102575.09
2023-04-19T20:03:07.625Z,102567.44
2023-04-19T20:05:37.266Z,102580.91
2023-04-19T20:08:07.994Z,102580.34
2023-04-19T20:10:35.505Z,102579.28
2023-04-19T20:13:02.142Z,102586.16
2023-04-19T20:15:30.185Z,102590.00
2023-04-19T20:17:58.093Z,102588.94
2023-04-19T20:20:26.348Z,102599.63
2023-04-19T20:22:53.199Z,102593.63
2023-04-19T20:25:19.709Z,102592.56
2023-04-19T20:27:46.236Z,102604.09
2023-04-19T20:30:13.383Z,102604.41
2023-04-19T20:32:42.567Z,102611.78
2023-04-19T20:35:11.938Z,102606.34
2023-04-19T20:37:42.441Z,102610.97
2023-04-19T20:40:11.758Z,102610.16
2023-04-19T20:42:38.696Z,102603.09
2023-04-19T20:45:09.806Z,102605.00
2023-04-19T20:47:41.085Z,102605.03
2023-04-19T20:50:08.665Z,102605.84
2023-04-19T20:52:35.674Z,102603.41
2023-04-19T20:55:02.212Z,102605.59
2023-04-19T20:57:28.974Z,102606.72
2023-04-19T20:59:55.603Z,102605.91
2023-04-19T21:02:22.401Z,102605.38
2023-04-19T21:04:49.604Z,102608.38
2023-04-19T21:07:16.055Z,102609.75
2023-04-19T21:09:42.544Z,102608.66
2023-04-19T21:12:09.147Z,102600.16
2023-04-19T21:14:35.822Z,102602.34
2023-04-19T21:17:03.551Z,102602.09
2023-04-19T21:19:30.420Z,102610.88
2023-04-19T21:21:57.935Z,102607.59
2023-04-19T21:24:26.297Z,102603.19
2023-04-19T21:26:54.075Z,102607.03
2023-04-19T21:29:20.873Z,102611.41
2023-04-19T21:31:47.740Z,102599.91
2023-04-19T21:34:14.307Z,102606.47
2023-04-19T21:36:40.868Z,102607.84
2023-04-19T21:39:07.917Z,102603.47
2023-04-19T21:41:35.679Z,102604.84
2023-04-19T21:44:02.407Z,102602.63
2023-04-19T21:46:28.904Z,102599.91
2023-04-19T21:48:56.071Z,102593.59
2023-04-19T21:51:22.700Z,102597.13
2023-04-19T21:53:50.609Z,102594.38
2023-04-19T21:56:17.074Z,102588.38
2023-04-19T21:58:46.078Z,102589.47
2023-04-19T22:01:12.990Z,102588.91
2023-04-19T22:03:39.881Z,102593.00
2023-04-19T22:06:06.780Z,102593.28
2023-04-19T22:08:33.925Z,102590.78
2023-04-19T22:11:01.490Z,102597.63
2023-04-19T22:13:33.267Z,102593.78
2023-04-19T22:16:01.457Z,102598.69
2023-04-19T22:18:27.938Z,102595.94
2023-04-19T22:20:55.767Z,102592.38
2023-04-19T22:23:22.235Z,102604.16
2023-04-19T22:25:48.677Z,102598.66
2023-04-19T22:28:15.444Z,102596.44
2023-04-19T22:30:41.988Z,102599.44
2023-04-19T22:33:08.457Z,102599.13
2023-04-19T22:35:35.039Z,102600.47
2023-04-19T22:38:01.595Z,102595.56
2023-04-19T22:40:28.116Z,102591.97
2023-04-19T22:42:54.541Z,102601.00
2023-04-19T22:45:21.040Z,102598.78
2023-04-19T22:47:47.663Z,102593.84
2023-04-19T22:50:14.333Z,102599.84
2023-04-19T22:52:41.401Z,102597.09
2023-04-19T22:55:08.406Z,102602.25
2023-04-19T22:57:34.846Z,102610.16
2023-04-19T23:00:01.320Z,102598.94
2023-04-19T23:02:28.007Z,102594.00
2023-04-19T23:04:54.632Z,102592.09
2023-04-19T23:07:21.866Z,102596.47
2023-04-19T23:09:48.390Z,102586.31
2023-04-19T23:12:15.714Z,102598.06
2023-04-19T23:14:42.266Z,102590.13
2023-04-19T23:17:08.664Z,102587.41
2023-04-19T23:19:37.467Z,102592.88
2023-04-19T23:22:03.883Z,102587.38
2023-04-19T23:24:36.525Z,102584.34
2023-04-19T23:27:03.505Z,102580.78
2023-04-19T23:29:32.599Z,102580.50
2023-04-19T23:32:00.854Z,102572.56
2023-04-19T23:34:27.344Z,102571.44
2023-04-19T23:36:53.943Z,102572.78
2023-04-19T23:39:20.512Z,102560.47
2023-04-19T23:41:47.028Z,102557.19
2023-04-19T23:44:13.916Z,102552.81
2023-04-19T23:46:40.730Z,102554.41
2023-04-19T23:49:08.610Z,102551.38
2023-04-19T23:51:36.282Z,102543.72
2023-04-19T23:54:02.964Z,102546.41
2023-04-19T23:56:29.493Z,102543.06
2023-04-19T23:58:57.545Z,102549.31
